Weather at New Tazewell Municipal Airport

Public forecast

Using degrees Fahrenheit for public forecast. Weather courtesy of forecast.io.

Closest aviation weather report (METAR) to New Tazewell Municipal Airport

Closest report is Middlesboro-Bell County Airport, 14.9 nm (27.6 km) NW. Retrieved UTC (0 seconds ago):

Closest aviation forecast (TAF) to New Tazewell Municipal Airport

Closest forecast is McGhee Tyson Airport, 41.8 nm (77.4 km) SSW. Retrieved 2021/06/20 06:42 UTC (2 hours ago):

TAF KTYS 200540Z 2006/2106 06004KT P6SM BKN070 BKN200 FM200900 04004KT P6SM VCSH OVC060 FM201400 VRB04KT P6SM VCSH BKN035 PROB30 2015/2017 4SM -SHRA BR OVC025 FM202000 26006KT P6SM BKN060 FM210000 23005KT P6SM BKN100